Time,TemperatureF,DewpointF,PressureIn,WindDirection,WindDirectionDegrees,WindSpeedMPH,WindSpeedGustMPH,Humidity,HourlyPrecipIn,Conditions,Clouds,dailyrainin,SoftwareType,DateUTC
2013-03-06 00:00:00,37.3,29.8,29.57,East,90,0.0,2.0,74,0.00,,,0.53,Wunderground v.1.15,2013-03-06 05:00:00,
2013-03-06 00:01:00,37.3,29.8,29.57,North,355,2.0,2.0,74,0.00,,,0.53,Wunderground v.1.15,2013-03-06 05:01:00,
2013-03-06 00:02:00,37.2,29.7,29.57,North,355,1.0,2.0,74,0.00,,,0.00,Wunderground v.1.15,2013-03-06 05:02:00,
2013-03-06 00:07:00,36.8,29.6,29.57,NNE,26,0.0,4.0,75,0.00,,,0.00,Wunderground v.1.15,2013-03-06 05:07:00,
2013-03-06 00:09:00,36.7,29.5,29.57,West,273,2.0,4.0,75,0.00,,,0.00,Wunderground v.1.15,2013-03-06 05:09:00,
2013-03-06 00:15:00,36.6,28.4,29.57,North,360,1.0,8.0,72,0.00,,,0.00,Wunderground v.1.15,2013-03-06 05:15:00,
2013-03-06 00:20:00,36.7,26.8,29.58,NW,317,1.0,3.0,67,0.00,,,0.00,Wunderground v.1.15,2013-03-06 05:20:00,
2013-03-06 00:26:00,36.7,26.4,29.58,WNW,287,4.0,4.0,66,0.00,,,0.00,Wunderground v.1.15,2013-03-06 05:26:00,
2013-03-06 00:31:00,36.6,26.3,29.58,NE,34,2.0,3.0,66,0.00,,,0.00,Wunderground v.1.15,2013-03-06 05:31:00,
2013-03-06 00:37:00,36.2,26.6,29.58,South,179,1.0,3.0,68,0.00,,,0.00,Wunderground v.1.15,2013-03-06 05:37:00,
2013-03-06 00:43:00,35.9,26.0,29.58,WNW,303,0.0,2.0,67,0.00,,,0.00,Wunderground v.1.15,2013-03-06 05:43:00,
2013-03-06 00:48:00,35.6,26.4,29.59,WNW,294,0.0,2.0,69,0.00,,,0.00,Wunderground v.1.15,2013-03-06 05:48:00,
2013-03-06 00:54:00,35.4,26.6,29.59,WNW,292,3.0,3.0,70,0.00,,,0.00,Wunderground v.1.15,2013-03-06 05:54:00,
2013-03-06 00:59:00,35.2,26.7,29.59,West,277,0.0,3.0,71,0.00,,,0.00,Wunderground v.1.15,2013-03-06 05:59:00,
2013-03-06 01:05:00,35.0,26.5,29.59,West,269,1.0,3.0,71,0.00,,,0.00,Wunderground v.1.15,2013-03-06 06:05:00,
2013-03-06 01:10:00,35.0,26.9,29.59,WNW,292,0.0,2.0,72,0.00,,,0.00,Wunderground v.1.15,2013-03-06 06:10:00,
2013-03-06 01:15:00,35.0,26.9,29.59,WNW,293,2.0,2.0,72,0.00,,,0.00,Wunderground v.1.15,2013-03-06 06:15:00,
2013-03-06 01:21:00,34.9,26.8,29.59,WNW,284,0.0,1.0,72,0.00,,,0.00,Wunderground v.1.15,2013-03-06 06:21:00,
2013-03-06 01:27:00,34.7,26.9,29.59,NNW,329,4.0,4.0,73,0.00,,,0.00,Wunderground v.1.15,2013-03-06 06:27:00,
2013-03-06 01:32:00,34.6,26.2,29.60,West,269,7.0,7.0,71,0.00,,,0.00,Wunderground v.1.15,2013-03-06 06:32:00,
2013-03-06 01:38:00,34.6,25.8,29.60,North,5,3.0,7.0,70,0.00,,,0.00,Wunderground v.1.15,2013-03-06 06:38:00,
2013-03-06 01:44:00,34.4,24.9,29.60,NNW,344,2.0,6.0,68,0.00,,,0.00,Wunderground v.1.15,2013-03-06 06:44:00,
2013-03-06 01:49:00,34.4,24.6,29.60,NNW,338,3.0,6.0,67,0.00,,,0.00,Wunderground v.1.15,2013-03-06 06:49:00,
2013-03-06 01:54:00,34.4,25.3,29.60,NNE,13,2.0,2.0,69,0.00,,,0.00,Wunderground v.1.15,2013-03-06 06:54:00,
2013-03-06 02:00:00,34.4,26.0,29.60,NW,316,3.0,3.0,71,0.00,,,0.00,Wunderground v.1.15,2013-03-06 07:00:00,
2013-03-06 02:05:00,34.4,24.9,29.61,WNW,286,0.0,3.0,68,0.00,,,0.00,Wunderground v.1.15,2013-03-06 07:05:00,
2013-03-06 02:10:00,34.4,25.3,29.61,WNW,303,1.0,3.0,69,0.00,,,0.00,Wunderground v.1.15,2013-03-06 07:10:00,
2013-03-06 02:15:00,34.3,25.2,29.61,NNW,344,4.0,4.0,69,0.00,,,0.00,Wunderground v.1.15,2013-03-06 07:15:00,
2013-03-06 02:20:00,34.1,25.7,29.61,North,355,2.0,2.0,71,0.00,,,0.00,Wunderground v.1.15,2013-03-06 07:20:00,
2013-03-06 02:25:00,33.8,25.4,29.61,North,360,5.0,5.0,71,0.00,,,0.00,Wunderground v.1.15,2013-03-06 07:25:00,
2013-03-06 02:30:00,33.4,26.0,29.61,North,360,3.0,4.0,74,0.00,,,0.00,Wunderground v.1.15,2013-03-06 07:30:00,
2013-03-06 02:35:00,32.9,25.8,29.61,NE,39,2.0,5.0,75,0.00,,,0.00,Wunderground v.1.15,2013-03-06 07:35:00,
2013-03-06 02:40:00,32.5,26.1,29.61,North,355,3.0,5.0,77,0.00,,,0.00,Wunderground v.1.15,2013-03-06 07:40:00,
2013-03-06 02:46:00,32.2,26.1,29.61,NNE,22,0.0,5.0,78,0.00,,,0.00,Wunderground v.1.15,2013-03-06 07:46:00,
2013-03-06 02:51:00,32.0,25.3,29.61,NNW,346,4.0,4.0,76,0.00,,,0.00,Wunderground v.1.15,2013-03-06 07:51:00,
2013-03-06 02:56:00,32.0,25.6,29.61,ENE,71,5.0,5.0,77,0.00,,,0.00,Wunderground v.1.15,2013-03-06 07:56:00,
2013-03-06 03:01:00,31.9,25.2,29.61,NNE,17,0.0,2.0,76,0.00,,,0.00,Wunderground v.1.15,2013-03-06 08:01:00,
2013-03-06 03:06:00,31.9,24.9,29.61,North,9,3.0,5.0,75,0.00,,,0.00,Wunderground v.1.15,2013-03-06 08:06:00,
2013-03-06 03:11:00,31.9,24.9,29.61,North,5,0.0,3.0,75,0.00,,,0.00,Wunderground v.1.15,2013-03-06 08:11:00,
2013-03-06 03:16:00,31.9,24.9,29.61,NNE,19,2.0,3.0,75,0.00,,,0.00,Wunderground v.1.15,2013-03-06 08:16:00,
2013-03-06 03:21:00,31.7,24.0,29.61,NE,34,0.0,3.0,73,0.00,,,0.00,Wunderground v.1.15,2013-03-06 08:21:00,
2013-03-06 03:26:00,31.7,23.7,29.61,NW,309,1.0,4.0,72,0.00,,,0.00,Wunderground v.1.15,2013-03-06 08:26:00,
2013-03-06 03:32:00,31.7,24.7,29.61,NW,318,1.0,5.0,75,0.00,,,0.00,Wunderground v.1.15,2013-03-06 08:32:00,
2013-03-06 03:37:00,31.6,23.6,29.61,NW,307,2.0,5.0,72,0.00,,,0.00,Wunderground v.1.15,2013-03-06 08:37:00,
2013-03-06 03:42:00,31.6,23.9,29.61,NW,310,3.0,3.0,73,0.00,,,0.00,Wunderground v.1.15,2013-03-06 08:42:00,
2013-03-06 03:47:00,31.4,22.7,29.61,WNW,299,0.0,8.0,70,0.00,,,0.00,Wunderground v.1.15,2013-03-06 08:47:00,
2013-03-06 03:52:00,31.4,23.1,29.61,NNW,336,3.0,4.0,71,0.00,,,0.00,Wunderground v.1.15,2013-03-06 08:52:00,
2013-03-06 03:57:00,31.3,23.0,29.61,NNW,339,3.0,4.0,71,0.00,,,0.00,Wunderground v.1.15,2013-03-06 08:57:00,
2013-03-06 04:02:00,31.2,22.5,29.61,NW,323,0.0,7.0,70,0.00,,,0.00,Wunderground v.1.15,2013-03-06 09:02:00,
2013-03-06 04:07:00,31.1,23.1,29.61,NW,322,0.0,7.0,72,0.00,,,0.00,Wunderground v.1.15,2013-03-06 09:07:00,
2013-03-06 04:12:00,30.8,23.2,29.61,North,355,3.0,4.0,73,0.00,,,0.00,Wunderground v.1.15,2013-03-06 09:12:00,
2013-03-06 04:17:00,30.6,22.3,29.61,North,360,0.0,5.0,71,0.00,,,0.00,Wunderground v.1.15,2013-03-06 09:17:00,
2013-03-06 04:23:00,30.4,22.1,29.61,North,360,1.0,4.0,71,0.00,,,0.00,Wunderground v.1.15,2013-03-06 09:23:00,
2013-03-06 04:28:00,30.5,22.2,29.61,NNW,347,3.0,5.0,71,0.00,,,0.00,Wunderground v.1.15,2013-03-06 09:28:00,
2013-03-06 04:33:00,30.6,22.3,29.63,WNW,290,1.0,7.0,71,0.00,,,0.00,Wunderground v.1.15,2013-03-06 09:33:00,
2013-03-06 04:39:00,30.6,23.0,29.63,West,261,5.0,7.0,73,0.00,,,0.00,Wunderground v.1.15,2013-03-06 09:39:00,
2013-03-06 04:44:00,30.4,23.1,29.63,WNW,286,0.0,4.0,74,0.00,,,0.00,Wunderground v.1.15,2013-03-06 09:44:00,
2013-03-06 04:49:00,30.2,23.2,29.63,WSW,248,3.0,5.0,75,0.00,,,0.00,Wunderground v.1.15,2013-03-06 09:49:00,
2013-03-06 04:55:00,30.0,22.7,29.63,WNW,285,0.0,4.0,74,0.00,,,0.00,Wunderground v.1.15,2013-03-06 09:55:00,
2013-03-06 05:00:00,29.8,22.5,29.63,NW,314,2.0,2.0,74,0.00,,,0.00,Wunderground v.1.15,2013-03-06 10:00:00,
2013-03-06 05:05:00,29.6,22.0,29.63,North,350,5.0,8.0,73,0.00,,,0.00,Wunderground v.1.15,2013-03-06 10:05:00,
2013-03-06 05:10:00,29.5,20.6,29.63,NNW,333,0.0,2.0,69,0.00,,,0.00,Wunderground v.1.15,2013-03-06 10:10:00,
2013-03-06 05:15:00,29.5,19.9,29.63,NNW,346,1.0,5.0,67,0.00,,,0.00,Wunderground v.1.15,2013-03-06 10:15:00,
2013-03-06 05:20:00,29.5,20.2,29.63,WNW,287,6.0,6.0,68,0.00,,,0.00,Wunderground v.1.15,2013-03-06 10:20:00,
2013-03-06 05:25:00,29.3,19.3,29.63,North,349,1.0,7.0,66,0.00,,,0.00,Wunderground v.1.15,2013-03-06 10:25:00,
2013-03-06 05:31:00,29.2,18.9,29.64,NW,326,0.0,3.0,65,0.00,,,0.00,Wunderground v.1.15,2013-03-06 10:31:00,
2013-03-06 05:36:00,29.1,18.4,29.64,North,360,1.0,8.0,64,0.00,,,0.00,Wunderground v.1.15,2013-03-06 10:36:00,
2013-03-06 05:41:00,29.0,18.3,29.64,NW,311,0.0,3.0,64,0.00,,,0.00,Wunderground v.1.15,2013-03-06 10:41:00,
2013-03-06 05:46:00,28.9,18.2,29.65,WSW,249,0.0,3.0,64,0.00,,,0.00,Wunderground v.1.15,2013-03-06 10:46:00,
2013-03-06 05:51:00,28.9,18.6,29.65,North,360,6.0,10.0,65,0.00,,,0.00,Wunderground v.1.15,2013-03-06 10:51:00,
2013-03-06 05:56:00,28.9,18.6,29.65,NW,316,3.0,10.0,65,0.00,,,0.00,Wunderground v.1.15,2013-03-06 10:56:00,
2013-03-06 06:02:00,28.9,18.2,29.66,West,279,4.0,7.0,64,0.00,,,0.00,Wunderground v.1.15,2013-03-06 11:02:00,
2013-03-06 06:07:00,28.8,18.9,29.66,North,5,4.0,7.0,66,0.00,,,0.00,Wunderground v.1.15,2013-03-06 11:07:00,
2013-03-06 06:12:00,28.7,19.1,29.66,NNW,333,0.0,3.0,67,0.00,,,0.00,Wunderground v.1.15,2013-03-06 11:12:00,
2013-03-06 06:17:00,28.6,19.0,29.67,NNW,331,6.0,7.0,67,0.00,,,0.00,Wunderground v.1.15,2013-03-06 11:17:00,
2013-03-06 06:22:00,28.5,19.3,29.67,North,355,3.0,4.0,68,0.00,,,0.00,Wunderground v.1.15,2013-03-06 11:22:00,
2013-03-06 06:27:00,28.4,19.2,29.67,North,355,1.0,6.0,68,0.00,,,0.00,Wunderground v.1.15,2013-03-06 11:27:00,
2013-03-06 06:32:00,28.3,19.1,29.67,WNW,296,2.0,5.0,68,0.00,,,0.00,Wunderground v.1.15,2013-03-06 11:32:00,
2013-03-06 06:37:00,28.2,19.3,29.67,WSW,252,7.0,11.0,69,0.00,,,0.00,Wunderground v.1.15,2013-03-06 11:37:00,
2013-03-06 06:42:00,28.2,19.0,29.67,WNW,296,0.0,5.0,68,0.00,,,0.00,Wunderground v.1.15,2013-03-06 11:42:00,
2013-03-06 06:47:00,28.1,19.9,29.68,North,10,2.0,5.0,71,0.00,,,0.00,Wunderground v.1.15,2013-03-06 11:47:00,
2013-03-06 06:52:00,28.0,19.8,29.68,NNE,30,4.0,8.0,71,0.00,,,0.00,Wunderground v.1.15,2013-03-06 11:52:00,
2013-03-06 06:57:00,28.0,19.5,29.68,NNW,331,4.0,8.0,70,0.00,,,0.00,Wunderground v.1.15,2013-03-06 11:57:00,
2013-03-06 07:03:00,28.0,19.8,29.68,North,5,0.0,3.0,71,0.00,,,0.00,Wunderground v.1.15,2013-03-06 12:03:00,
2013-03-06 07:08:00,27.9,19.7,29.68,WNW,287,0.0,6.0,71,0.00,,,0.00,Wunderground v.1.15,2013-03-06 12:08:00,
2013-03-06 07:13:00,27.9,20.0,29.68,WNW,287,0.0,2.0,72,0.00,,,0.00,Wunderground v.1.15,2013-03-06 12:13:00,
2013-03-06 07:19:00,27.9,19.4,29.69,West,263,0.0,2.0,70,0.00,,,0.00,Wunderground v.1.15,2013-03-06 12:19:00,
2013-03-06 07:24:00,27.9,19.4,29.69,North,360,0.0,2.0,70,0.00,,,0.00,Wunderground v.1.15,2013-03-06 12:24:00,
2013-03-06 07:29:00,28.0,19.5,29.69,West,269,4.0,7.0,70,0.00,,,0.00,Wunderground v.1.15,2013-03-06 12:29:00,
2013-03-06 07:34:00,28.1,19.2,29.69,WNW,292,3.0,5.0,69,0.00,,,0.00,Wunderground v.1.15,2013-03-06 12:34:00,
2013-03-06 07:39:00,28.3,19.4,29.69,NE,45,2.0,7.0,69,0.00,,,0.00,Wunderground v.1.15,2013-03-06 12:39:00,
2013-03-06 07:44:00,28.4,19.5,29.69,WNW,298,1.0,4.0,69,0.00,,,0.00,Wunderground v.1.15,2013-03-06 12:44:00,
2013-03-06 07:50:00,28.5,19.6,29.69,WNW,290,2.0,2.0,69,0.00,,,0.00,Wunderground v.1.15,2013-03-06 12:50:00,
2013-03-06 07:55:00,28.6,19.7,29.69,NW,309,4.0,6.0,69,0.00,,,0.00,Wunderground v.1.15,2013-03-06 12:55:00,
2013-03-06 08:00:00,28.8,19.9,29.69,North,5,3.0,3.0,69,0.00,,,0.00,Wunderground v.1.15,2013-03-06 13:00:00,
2013-03-06 08:05:00,28.9,20.0,29.70,North,5,4.0,5.0,69,0.00,,,0.00,Wunderground v.1.15,2013-03-06 13:05:00,
2013-03-06 08:10:00,29.0,20.1,29.70,NW,314,0.0,3.0,69,0.00,,,0.00,Wunderground v.1.15,2013-03-06 13:10:00,
2013-03-06 08:15:00,29.1,20.9,29.70,NNE,13,3.0,7.0,71,0.00,,,0.00,Wunderground v.1.15,2013-03-06 13:15:00,
2013-03-06 08:20:00,29.2,20.6,29.70,WNW,296,1.0,3.0,70,0.00,,,0.00,Wunderground v.1.15,2013-03-06 13:20:00,
2013-03-06 08:26:00,29.4,21.5,29.70,West,268,5.0,7.0,72,0.00,,,0.00,Wunderground v.1.15,2013-03-06 13:26:00,
2013-03-06 08:31:00,29.6,21.3,29.71,NNW,331,1.0,4.0,71,0.00,,,0.00,Wunderground v.1.15,2013-03-06 13:31:00,
2013-03-06 08:36:00,29.8,21.2,29.71,North,11,5.0,5.0,70,0.00,,,0.00,Wunderground v.1.15,2013-03-06 13:36:00,
2013-03-06 08:41:00,30.1,21.5,29.71,NNW,345,7.0,7.0,70,0.00,,,0.00,Wunderground v.1.15,2013-03-06 13:41:00,
2013-03-06 08:46:00,30.3,21.7,29.72,NNW,346,5.0,11.0,70,0.00,,,0.00,Wunderground v.1.15,2013-03-06 13:46:00,
2013-03-06 08:51:00,30.4,21.4,29.72,NNW,339,6.0,8.0,69,0.00,,,0.00,Wunderground v.1.15,2013-03-06 13:51:00,
2013-03-06 08:56:00,30.3,21.3,29.72,NNW,335,2.0,9.0,69,0.00,,,0.00,Wunderground v.1.15,2013-03-06 13:56:00,
2013-03-06 09:02:00,30.0,20.7,29.73,West,278,1.0,8.0,68,0.00,,,0.00,Wunderground v.1.15,2013-03-06 14:02:00,
2013-03-06 09:07:00,29.9,21.0,29.73,NNE,15,3.0,8.0,69,0.00,,,0.00,Wunderground v.1.15,2013-03-06 14:07:00,
2013-03-06 09:12:00,29.8,20.9,29.73,NNW,348,1.0,4.0,69,0.00,,,0.00,Wunderground v.1.15,2013-03-06 14:12:00,
2013-03-06 09:17:00,29.8,20.5,29.75,WNW,298,3.0,7.0,68,0.00,,,0.00,Wunderground v.1.15,2013-03-06 14:17:00,
2013-03-06 09:22:00,29.8,21.2,29.75,NNW,338,3.0,4.0,70,0.00,,,0.00,Wunderground v.1.15,2013-03-06 14:22:00,
2013-03-06 09:27:00,29.8,20.9,29.75,WNW,287,0.0,7.0,69,0.00,,,0.00,Wunderground v.1.15,2013-03-06 14:27:00,
2013-03-06 09:32:00,29.9,21.0,29.75,NE,40,5.0,5.0,69,0.00,,,0.00,Wunderground v.1.15,2013-03-06 14:32:00,
2013-03-06 09:37:00,30.1,21.2,29.75,NNW,344,0.0,5.0,69,0.00,,,0.00,Wunderground v.1.15,2013-03-06 14:37:00,
2013-03-06 09:43:00,30.7,21.7,29.75,NNE,19,3.0,6.0,69,0.00,,,0.00,Wunderground v.1.15,2013-03-06 14:43:00,
2013-03-06 09:48:00,31.9,22.2,29.76,NNW,327,0.0,7.0,67,0.00,,,0.00,Wunderground v.1.15,2013-03-06 14:48:00,
2013-03-06 09:53:00,33.0,22.5,29.76,NNE,14,4.0,9.0,65,0.00,,,0.00,Wunderground v.1.15,2013-03-06 14:53:00,
2013-03-06 09:59:00,33.7,22.1,29.76,NW,315,5.0,9.0,62,0.00,,,0.00,Wunderground v.1.15,2013-03-06 14:59:00,
2013-03-06 10:04:00,33.9,21.9,29.77,NNE,28,0.0,7.0,61,0.00,,,0.00,Wunderground v.1.15,2013-03-06 15:04:00,
2013-03-06 10:09:00,34.1,21.7,29.77,WSW,247,5.0,9.0,60,0.00,,,0.00,Wunderground v.1.15,2013-03-06 15:09:00,
2013-03-06 10:14:00,34.4,22.3,29.77,NNW,332,0.0,5.0,61,0.00,,,0.00,Wunderground v.1.15,2013-03-06 15:14:00,
2013-03-06 10:20:00,34.7,21.4,29.79,NNW,341,3.0,3.0,58,0.00,,,0.00,Wunderground v.1.15,2013-03-06 15:20:00,
2013-03-06 10:25:00,34.4,21.1,29.79,West,271,5.0,9.0,58,0.00,,,0.00,Wunderground v.1.15,2013-03-06 15:25:00,
2013-03-06 10:30:00,34.4,22.3,29.79,NNE,24,6.0,6.0,61,0.00,,,0.00,Wunderground v.1.15,2013-03-06 15:30:00,
2013-03-06 10:35:00,34.7,21.4,29.80,NNW,346,1.0,16.0,58,0.00,,,0.00,Wunderground v.1.15,2013-03-06 15:35:00,
2013-03-06 10:40:00,35.3,23.2,29.80,NNE,33,7.0,7.0,61,0.00,,,0.00,Wunderground v.1.15,2013-03-06 15:40:00,
2013-03-06 10:45:00,35.6,22.3,29.80,North,9,1.0,12.0,58,0.00,,,0.00,Wunderground v.1.15,2013-03-06 15:45:00,
2013-03-06 10:50:00,36.1,22.7,29.80,NW,317,2.0,6.0,58,0.00,,,0.00,Wunderground v.1.15,2013-03-06 15:50:00,
2013-03-06 10:55:00,35.9,21.7,29.80,West,277,8.0,16.0,56,0.00,,,0.00,Wunderground v.1.15,2013-03-06 15:55:00,
2013-03-06 11:00:00,35.6,21.9,29.81,NE,50,13.0,13.0,57,0.00,,,0.00,Wunderground v.1.15,2013-03-06 16:00:00,
2013-03-06 11:05:00,35.4,22.1,29.81,NNE,14,1.0,14.0,58,0.00,,,0.00,Wunderground v.1.15,2013-03-06 16:05:00,
2013-03-06 11:11:00,35.8,22.5,29.81,North,360,12.0,12.0,58,0.00,,,0.00,Wunderground v.1.15,2013-03-06 16:11:00,
2013-03-06 11:16:00,36.1,22.7,29.82,North,351,5.0,12.0,58,0.00,,,0.00,Wunderground v.1.15,2013-03-06 16:16:00,
2013-03-06 11:21:00,36.2,22.8,29.82,WNW,290,2.0,8.0,58,0.00,,,0.00,Wunderground v.1.15,2013-03-06 16:21:00,
2013-03-06 11:26:00,36.1,23.1,29.82,NNW,344,3.0,8.0,59,0.00,,,0.00,Wunderground v.1.15,2013-03-06 16:26:00,
2013-03-06 11:31:00,36.4,23.8,29.82,WNW,300,9.0,9.0,60,0.00,,,0.00,Wunderground v.1.15,2013-03-06 16:31:00,
2013-03-06 11:36:00,36.8,24.2,29.82,WNW,301,7.0,9.0,60,0.00,,,0.00,Wunderground v.1.15,2013-03-06 16:36:00,
2013-03-06 11:41:00,36.7,23.7,29.82,NW,308,6.0,10.0,59,0.00,,,0.00,Wunderground v.1.15,2013-03-06 16:41:00,
2013-03-06 11:47:00,36.5,23.1,29.83,NNE,30,8.0,11.0,58,0.00,,,0.00,Wunderground v.1.15,2013-03-06 16:47:00,
2013-03-06 11:52:00,36.1,23.5,29.83,West,275,4.0,6.0,60,0.00,,,0.00,Wunderground v.1.15,2013-03-06 16:52:00,
2013-03-06 11:57:00,36.2,25.6,29.83,WNW,292,0.0,10.0,65,0.00,,,0.00,Wunderground v.1.15,2013-03-06 16:57:00,
2013-03-06 12:02:00,36.2,24.4,29.83,North,355,2.0,7.0,62,0.00,,,0.00,Wunderground v.1.15,2013-03-06 17:02:00,
2013-03-06 12:07:00,36.2,24.8,29.83,WNW,299,3.0,8.0,63,0.00,,,0.00,Wunderground v.1.15,2013-03-06 17:07:00,
2013-03-06 12:12:00,36.1,25.5,29.83,NNW,342,0.0,7.0,65,0.00,,,0.00,Wunderground v.1.15,2013-03-06 17:12:00,
2013-03-06 12:17:00,36.1,25.1,29.83,WSW,252,4.0,7.0,64,0.00,,,0.00,Wunderground v.1.15,2013-03-06 17:17:00,
2013-03-06 12:22:00,35.7,25.1,29.83,West,279,6.0,12.0,65,0.00,,,0.00,Wunderground v.1.15,2013-03-06 17:22:00,
2013-03-06 12:27:00,34.8,23.5,29.83,West,267,6.0,13.0,63,0.00,,,0.00,Wunderground v.1.15,2013-03-06 17:27:00,
2013-03-06 12:32:00,34.4,24.2,29.84,WSW,246,3.0,7.0,66,0.00,,,0.00,Wunderground v.1.15,2013-03-06 17:32:00,
2013-03-06 12:37:00,34.4,24.2,29.84,West,280,2.0,10.0,66,0.00,,,0.00,Wunderground v.1.15,2013-03-06 17:37:00,
2013-03-06 12:43:00,34.1,24.6,29.84,NNW,338,1.0,16.0,68,0.00,,,0.00,Wunderground v.1.15,2013-03-06 17:43:00,
2013-03-06 12:48:00,34.1,25.0,29.85,NNE,32,4.0,16.0,69,0.00,,,0.00,Wunderground v.1.15,2013-03-06 17:48:00,
2013-03-06 12:53:00,33.8,24.4,29.85,NW,320,2.0,13.0,68,0.00,,,0.00,Wunderground v.1.15,2013-03-06 17:53:00,
2013-03-06 12:58:00,33.5,24.1,29.85,West,275,9.0,13.0,68,0.00,,,0.00,Wunderground v.1.15,2013-03-06 17:58:00,
2013-03-06 13:04:00,33.1,23.3,29.86,NNE,30,9.0,15.0,67,0.00,,,0.00,Wunderground v.1.15,2013-03-06 18:04:00,
2013-03-06 13:09:00,32.9,23.8,29.86,WNW,292,4.0,15.0,69,0.00,,,0.00,Wunderground v.1.15,2013-03-06 18:09:00,
2013-03-06 13:14:00,33.0,23.6,29.86,WNW,286,9.0,9.0,68,0.00,,,0.00,Wunderground v.1.15,2013-03-06 18:14:00,
2013-03-06 13:19:00,33.1,23.3,29.87,West,277,6.0,11.0,67,0.00,,,0.00,Wunderground v.1.15,2013-03-06 18:19:00,
2013-03-06 13:24:00,33.6,24.2,29.87,North,349,3.0,7.0,68,0.00,,,0.00,Wunderground v.1.15,2013-03-06 18:24:00,
2013-03-06 13:29:00,33.6,23.4,29.87,West,269,5.0,14.0,66,0.00,,,0.00,Wunderground v.1.15,2013-03-06 18:29:00,
2013-03-06 13:34:00,33.5,23.7,29.87,NNE,15,6.0,10.0,67,0.00,,,0.00,Wunderground v.1.15,2013-03-06 18:34:00,
2013-03-06 13:39:00,33.7,24.6,29.87,NW,304,7.0,12.0,69,0.00,,,0.00,Wunderground v.1.15,2013-03-06 18:39:00,
2013-03-06 13:44:00,33.8,24.7,29.87,NNW,333,6.0,12.0,69,0.00,,,0.00,Wunderground v.1.15,2013-03-06 18:44:00,
2013-03-06 13:49:00,33.6,23.8,29.88,NW,318,0.0,12.0,67,0.00,,,0.00,Wunderground v.1.15,2013-03-06 18:49:00,
2013-03-06 13:55:00,33.7,24.6,29.88,South,181,3.0,16.0,69,0.00,,,0.00,Wunderground v.1.15,2013-03-06 18:55:00,
2013-03-06 14:00:00,33.6,24.2,29.88,NW,317,2.0,6.0,68,0.00,,,0.00,Wunderground v.1.15,2013-03-06 19:00:00,
2013-03-06 14:05:00,33.6,25.2,29.88,NNE,21,4.0,6.0,71,0.00,,,0.00,Wunderground v.1.15,2013-03-06 19:05:00,
2013-03-06 14:10:00,33.7,24.6,29.88,WNW,289,5.0,7.0,69,0.00,,,0.00,Wunderground v.1.15,2013-03-06 19:10:00,
2013-03-06 14:15:00,33.7,25.0,29.88,North,9,6.0,12.0,70,0.00,,,0.00,Wunderground v.1.15,2013-03-06 19:15:00,
2013-03-06 14:20:00,33.8,24.4,29.89,SW,224,5.0,7.0,68,0.00,,,0.00,Wunderground v.1.15,2013-03-06 19:20:00,
2013-03-06 14:25:00,33.7,25.0,29.89,WNW,299,5.0,21.0,70,0.00,,,0.00,Wunderground v.1.15,2013-03-06 19:25:00,
2013-03-06 14:30:00,33.5,24.1,29.89,WNW,302,2.0,6.0,68,0.00,,,0.00,Wunderground v.1.15,2013-03-06 19:30:00,
2013-03-06 14:35:00,33.5,24.4,29.89,WNW,302,3.0,14.0,69,0.00,,,0.00,Wunderground v.1.15,2013-03-06 19:35:00,
2013-03-06 14:40:00,33.7,24.6,29.89,NNW,339,2.0,5.0,69,0.00,,,0.00,Wunderground v.1.15,2013-03-06 19:40:00,
2013-03-06 14:45:00,33.9,25.1,29.90,NNW,337,3.0,7.0,70,0.00,,,0.00,Wunderground v.1.15,2013-03-06 19:45:00,
2013-03-06 14:51:00,34.0,24.9,29.90,NW,309,2.0,4.0,69,0.00,,,0.00,Wunderground v.1.15,2013-03-06 19:51:00,
2013-03-06 14:56:00,34.2,25.8,29.90,NNW,331,1.0,9.0,71,0.00,,,0.00,Wunderground v.1.15,2013-03-06 19:56:00,
2013-03-06 15:01:00,34.1,25.3,29.90,North,9,5.0,5.0,70,0.00,,,0.00,Wunderground v.1.15,2013-03-06 20:01:00,
2013-03-06 15:06:00,33.9,25.8,29.90,WNW,290,6.0,7.0,72,0.00,,,0.00,Wunderground v.1.15,2013-03-06 20:06:00,
2013-03-06 15:11:00,33.6,25.2,29.90,WNW,286,6.0,11.0,71,0.00,,,0.00,Wunderground v.1.15,2013-03-06 20:11:00,
2013-03-06 15:16:00,33.3,25.2,29.92,WNW,302,2.0,11.0,72,0.00,,,0.00,Wunderground v.1.15,2013-03-06 20:16:00,
2013-03-06 15:21:00,33.3,25.2,29.92,NNE,12,14.0,14.0,72,0.00,,,0.00,Wunderground v.1.15,2013-03-06 20:21:00,
2013-03-06 15:26:00,33.3,25.6,29.92,West,281,7.0,14.0,73,0.00,,,0.00,Wunderground v.1.15,2013-03-06 20:26:00,
2013-03-06 15:31:00,33.6,26.2,29.93,NW,321,3.0,7.0,74,0.00,,,0.00,Wunderground v.1.15,2013-03-06 20:31:00,
2013-03-06 15:36:00,33.5,25.8,29.93,North,5,8.0,11.0,73,0.00,,,0.00,Wunderground v.1.15,2013-03-06 20:36:00,
2013-03-06 15:42:00,33.5,26.1,29.93,NW,309,2.0,5.0,74,0.00,,,0.00,Wunderground v.1.15,2013-03-06 20:42:00,
2013-03-06 15:47:00,33.4,26.0,29.93,NE,48,6.0,12.0,74,0.00,,,0.00,Wunderground v.1.15,2013-03-06 20:47:00,
2013-03-06 15:52:00,33.2,25.8,29.93,NNW,346,5.0,7.0,74,0.00,,,0.00,Wunderground v.1.15,2013-03-06 20:52:00,
2013-03-06 15:57:00,32.9,25.5,29.93,West,278,6.0,11.0,74,0.00,,,0.00,Wunderground v.1.15,2013-03-06 20:57:00,
2013-03-06 16:02:00,32.7,26.0,29.94,North,355,2.0,9.0,76,0.00,,,0.00,Wunderground v.1.15,2013-03-06 21:02:00,
2013-03-06 16:07:00,32.6,25.9,29.94,NNE,30,5.0,11.0,76,0.00,,,0.00,Wunderground v.1.15,2013-03-06 21:07:00,
2013-03-06 16:13:00,32.4,25.7,29.94,WNW,290,7.0,15.0,76,0.00,,,0.00,Wunderground v.1.15,2013-03-06 21:13:00,
2013-03-06 16:18:00,32.3,25.9,29.94,ENE,57,2.0,15.0,77,0.00,,,0.00,Wunderground v.1.15,2013-03-06 21:18:00,
2013-03-06 16:23:00,32.3,25.9,29.94,NW,322,2.0,9.0,77,0.00,,,0.00,Wunderground v.1.15,2013-03-06 21:23:00,
2013-03-06 16:28:00,32.3,25.9,29.94,North,355,8.0,9.0,77,0.00,,,0.00,Wunderground v.1.15,2013-03-06 21:28:00,
2013-03-06 16:34:00,32.3,25.9,29.95,NNE,24,4.0,9.0,77,0.00,,,0.00,Wunderground v.1.15,2013-03-06 21:34:00,
2013-03-06 16:39:00,32.4,26.3,29.95,NNW,346,2.0,9.0,78,0.00,,,0.00,Wunderground v.1.15,2013-03-06 21:39:00,
2013-03-06 16:44:00,32.4,26.0,29.95,WSW,254,5.0,11.0,77,0.00,,,0.00,Wunderground v.1.15,2013-03-06 21:44:00,
2013-03-06 16:49:00,32.3,25.9,29.96,NNW,346,3.0,14.0,77,0.00,,,0.00,Wunderground v.1.15,2013-03-06 21:49:00,
2013-03-06 16:55:00,32.2,25.8,29.96,NW,310,3.0,14.0,77,0.00,,,0.00,Wunderground v.1.15,2013-03-06 21:55:00,
2013-03-06 17:00:00,32.3,26.2,29.96,NE,53,5.0,6.0,78,0.00,,,0.00,Wunderground v.1.15,2013-03-06 22:00:00,
2013-03-06 17:05:00,32.2,25.8,29.98,ENE,57,1.0,10.0,77,0.00,,,0.00,Wunderground v.1.15,2013-03-06 22:05:00,
2013-03-06 17:10:00,32.0,25.9,29.98,NW,323,5.0,6.0,78,0.00,,,0.00,Wunderground v.1.15,2013-03-06 22:10:00,
2013-03-06 17:15:00,31.8,26.0,29.98,NW,326,10.0,10.0,79,0.00,,,0.00,Wunderground v.1.15,2013-03-06 22:15:00,
2013-03-06 17:20:00,31.7,25.9,29.99,NW,306,3.0,5.0,79,0.00,,,0.00,Wunderground v.1.15,2013-03-06 22:20:00,
2013-03-06 17:26:00,31.6,26.1,29.99,WSW,255,2.0,12.0,80,0.00,,,0.00,Wunderground v.1.15,2013-03-06 22:26:00,
2013-03-06 17:31:00,31.6,26.1,30.01,WNW,294,4.0,6.0,80,0.00,,,0.00,Wunderground v.1.15,2013-03-06 22:31:00,
2013-03-06 17:36:00,31.5,26.0,30.01,West,267,5.0,12.0,80,0.00,,,0.00,Wunderground v.1.15,2013-03-06 22:36:00,
2013-03-06 17:41:00,31.3,25.8,30.01,WNW,288,6.0,8.0,80,0.00,,,0.00,Wunderground v.1.15,2013-03-06 22:41:00,
2013-03-06 17:46:00,31.1,26.0,30.01,NNW,331,4.0,10.0,81,0.00,,,0.00,Wunderground v.1.15,2013-03-06 22:46:00,
2013-03-06 17:52:00,31.0,26.1,30.01,NW,311,5.0,5.0,82,0.00,,,0.00,Wunderground v.1.15,2013-03-06 22:52:00,
2013-03-06 17:57:00,30.9,25.8,30.01,NNW,337,4.0,7.0,81,0.00,,,0.00,Wunderground v.1.15,2013-03-06 22:57:00,
2013-03-06 18:02:00,30.9,26.1,30.04,West,277,0.0,7.0,82,0.00,,,0.00,Wunderground v.1.15,2013-03-06 23:02:00,
2013-03-06 18:07:00,30.9,26.1,30.04,NW,310,1.0,7.0,82,0.00,,,0.00,Wunderground v.1.15,2013-03-06 23:07:00,
2013-03-06 18:12:00,30.8,26.0,30.04,NNE,12,6.0,7.0,82,0.00,,,0.00,Wunderground v.1.15,2013-03-06 23:12:00,
2013-03-06 18:17:00,30.7,25.9,30.04,NNW,340,4.0,7.0,82,0.00,,,0.00,Wunderground v.1.15,2013-03-06 23:17:00,
2013-03-06 18:22:00,30.7,26.1,30.04,NNW,348,1.0,8.0,83,0.00,,,0.00,Wunderground v.1.15,2013-03-06 23:22:00,
2013-03-06 18:27:00,30.6,26.1,30.04,NNW,338,5.0,8.0,83,0.00,,,0.00,Wunderground v.1.15,2013-03-06 23:27:00,
2013-03-06 18:32:00,30.6,26.1,30.06,NNE,20,6.0,13.0,83,0.00,,,0.00,Wunderground v.1.15,2013-03-06 23:32:00,
2013-03-06 18:38:00,30.6,26.1,30.06,North,11,2.0,13.0,83,0.00,,,0.00,Wunderground v.1.15,2013-03-06 23:38:00,
2013-03-06 18:43:00,30.6,26.1,30.06,North,355,3.0,8.0,83,0.00,,,0.00,Wunderground v.1.15,2013-03-06 23:43:00,
2013-03-06 18:48:00,30.6,26.1,30.05,NW,324,5.0,11.0,83,0.00,,,0.00,Wunderground v.1.15,2013-03-06 23:48:00,
2013-03-06 18:53:00,30.6,26.1,30.05,North,355,2.0,6.0,83,0.00,,,0.00,Wunderground v.1.15,2013-03-06 23:53:00,
2013-03-06 18:58:00,30.6,26.1,30.05,NNW,335,5.0,9.0,83,0.00,,,0.00,Wunderground v.1.15,2013-03-06 23:58:00,
2013-03-06 19:04:00,30.6,26.1,30.06,North,360,5.0,12.0,83,0.00,,,0.00,Wunderground v.1.15,2013-03-07 00:04:00,
2013-03-06 19:09:00,30.6,26.1,30.06,NNE,13,3.0,12.0,83,0.00,,,0.00,Wunderground v.1.15,2013-03-07 00:09:00,
2013-03-06 19:14:00,30.5,26.0,30.06,NNE,19,4.0,11.0,83,0.00,,,0.00,Wunderground v.1.15,2013-03-07 00:14:00,
2013-03-06 19:19:00,30.5,26.0,30.07,NE,38,1.0,11.0,83,0.00,,,0.00,Wunderground v.1.15,2013-03-07 00:19:00,
2013-03-06 19:24:00,30.4,25.9,30.07,NNE,26,5.0,8.0,83,0.00,,,0.00,Wunderground v.1.15,2013-03-07 00:24:00,
2013-03-06 19:29:00,30.3,25.8,30.07,NNW,346,5.0,9.0,83,0.00,,,0.00,Wunderground v.1.15,2013-03-07 00:29:00,
2013-03-06 19:35:00,30.2,25.7,30.08,NW,319,8.0,8.0,83,0.00,,,0.00,Wunderground v.1.15,2013-03-07 00:35:00,
2013-03-06 19:40:00,30.1,25.6,30.08,ENE,78,5.0,5.0,83,0.00,,,0.00,Wunderground v.1.15,2013-03-07 00:40:00,
2013-03-06 19:45:00,30.1,25.6,30.08,NW,316,5.0,8.0,83,0.00,,,0.00,Wunderground v.1.15,2013-03-07 00:45:00,
2013-03-06 19:50:00,30.1,25.6,30.07,North,355,3.0,3.0,83,0.00,,,0.00,Wunderground v.1.15,2013-03-07 00:50:00,
2013-03-06 19:55:00,30.0,25.5,30.07,North,351,5.0,11.0,83,0.00,,,0.00,Wunderground v.1.15,2013-03-07 00:55:00,
2013-03-06 20:00:00,30.0,25.8,30.07,North,360,5.0,7.0,84,0.00,,,0.00,Wunderground v.1.15,2013-03-07 01:00:00,
2013-03-06 20:05:00,29.9,25.7,30.07,NNW,342,1.0,8.0,84,0.00,,,0.00,Wunderground v.1.15,2013-03-07 01:05:00,
2013-03-06 20:10:00,29.9,25.7,30.07,NNW,345,4.0,4.0,84,0.00,,,0.00,Wunderground v.1.15,2013-03-07 01:10:00,
2013-03-06 20:15:00,29.9,25.7,30.07,NW,311,3.0,8.0,84,0.00,,,0.00,Wunderground v.1.15,2013-03-07 01:15:00,
2013-03-06 20:20:00,29.9,25.7,30.08,North,360,9.0,9.0,84,0.00,,,0.00,Wunderground v.1.15,2013-03-07 01:20:00,
2013-03-06 20:25:00,29.8,25.6,30.08,NNW,334,4.0,11.0,84,0.00,,,0.00,Wunderground v.1.15,2013-03-07 01:25:00,
2013-03-06 20:31:00,29.8,25.6,30.08,NW,309,1.0,5.0,84,0.00,,,0.00,Wunderground v.1.15,2013-03-07 01:31:00,
2013-03-06 20:36:00,29.8,25.6,30.08,WNW,303,1.0,9.0,84,0.00,,,0.00,Wunderground v.1.15,2013-03-07 01:36:00,
2013-03-06 20:41:00,29.7,25.5,30.08,North,360,5.0,5.0,84,0.00,,,0.00,Wunderground v.1.15,2013-03-07 01:41:00,
2013-03-06 20:46:00,29.7,25.5,30.07,North,360,0.0,5.0,84,0.00,,,0.00,Wunderground v.1.15,2013-03-07 01:46:00,
2013-03-06 20:51:00,29.7,25.5,30.07,NE,38,5.0,6.0,84,0.00,,,0.00,Wunderground v.1.15,2013-03-07 01:51:00,
2013-03-06 20:56:00,29.7,25.7,30.07,NNW,345,4.0,6.0,85,0.00,,,0.00,Wunderground v.1.15,2013-03-07 01:56:00,
2013-03-06 21:02:00,29.8,25.8,30.08,North,360,4.0,4.0,85,0.00,,,0.00,Wunderground v.1.15,2013-03-07 02:02:00,
2013-03-06 21:07:00,29.8,25.8,30.08,WNW,299,2.0,8.0,85,0.00,,,0.00,Wunderground v.1.15,2013-03-07 02:07:00,
2013-03-06 21:12:00,29.8,25.8,30.08,NNE,28,7.0,7.0,85,0.00,,,0.00,Wunderground v.1.15,2013-03-07 02:12:00,
2013-03-06 21:17:00,29.8,25.6,30.08,NE,49,3.0,10.0,84,0.00,,,0.00,Wunderground v.1.15,2013-03-07 02:17:00,
2013-03-06 21:22:00,29.8,25.6,30.08,NNW,327,5.0,5.0,84,0.00,,,0.00,Wunderground v.1.15,2013-03-07 02:22:00,
2013-03-06 21:27:00,29.8,25.8,30.08,North,360,0.0,5.0,85,0.00,,,0.00,Wunderground v.1.15,2013-03-07 02:27:00,
2013-03-06 21:32:00,29.8,25.6,30.09,WNW,299,1.0,4.0,84,0.00,,,0.00,Wunderground v.1.15,2013-03-07 02:32:00,
2013-03-06 21:37:00,29.8,25.6,30.09,WNW,284,0.0,6.0,84,0.00,,,0.00,Wunderground v.1.15,2013-03-07 02:37:00,
2013-03-06 21:42:00,29.8,25.6,30.09,NW,311,3.0,9.0,84,0.00,,,0.00,Wunderground v.1.15,2013-03-07 02:42:00,
2013-03-06 21:48:00,29.8,25.8,30.09,WNW,287,4.0,9.0,85,0.00,,,0.00,Wunderground v.1.15,2013-03-07 02:48:00,
2013-03-06 21:53:00,29.7,25.7,30.09,West,278,3.0,6.0,85,0.00,,,0.00,Wunderground v.1.15,2013-03-07 02:53:00,
2013-03-06 21:58:00,29.7,25.7,30.09,NNW,332,3.0,9.0,85,0.00,,,0.00,Wunderground v.1.15,2013-03-07 02:58:00,
2013-03-06 22:03:00,29.8,25.8,30.10,NW,317,0.0,7.0,85,0.00,,,0.00,Wunderground v.1.15,2013-03-07 03:03:00,
2013-03-06 22:09:00,29.8,25.8,30.10,NNW,341,3.0,7.0,85,0.00,,,0.00,Wunderground v.1.15,2013-03-07 03:09:00,
2013-03-06 22:14:00,29.7,25.7,30.10,NW,313,2.0,6.0,85,0.00,,,0.00,Wunderground v.1.15,2013-03-07 03:14:00,
2013-03-06 22:19:00,29.8,25.8,30.11,North,349,3.0,7.0,85,0.00,,,0.00,Wunderground v.1.15,2013-03-07 03:19:00,
2013-03-06 22:24:00,29.8,25.8,30.11,West,281,10.0,10.0,85,0.00,,,0.00,Wunderground v.1.15,2013-03-07 03:24:00,
2013-03-06 22:29:00,29.7,25.7,30.11,West,270,2.0,10.0,85,0.00,,,0.00,Wunderground v.1.15,2013-03-07 03:29:00,
2013-03-06 22:34:00,29.7,25.7,30.11,NNW,338,4.0,9.0,85,0.00,,,0.00,Wunderground v.1.15,2013-03-07 03:34:00,
2013-03-06 22:39:00,29.7,25.7,30.11,NW,313,1.0,9.0,85,0.00,,,0.00,Wunderground v.1.15,2013-03-07 03:39:00,
2013-03-06 22:44:00,29.7,25.5,30.11,WNW,298,2.0,7.0,84,0.00,,,0.00,Wunderground v.1.15,2013-03-07 03:44:00,
2013-03-06 22:50:00,29.7,25.7,30.11,NNE,29,7.0,7.0,85,0.00,,,0.00,Wunderground v.1.15,2013-03-07 03:50:00,
2013-03-06 22:55:00,29.6,25.6,30.11,NNE,21,4.0,8.0,85,0.00,,,0.00,Wunderground v.1.15,2013-03-07 03:55:00,
2013-03-06 23:00:00,29.6,25.6,30.11,NNW,334,5.0,5.0,85,0.00,,,0.00,Wunderground v.1.15,2013-03-07 04:00:00,
2013-03-06 23:05:00,29.5,25.5,30.12,WSW,251,2.0,6.0,85,0.00,,,0.00,Wunderground v.1.15,2013-03-07 04:05:00,
2013-03-06 23:10:00,29.5,25.5,30.12,West,275,3.0,3.0,85,0.00,,,0.00,Wunderground v.1.15,2013-03-07 04:10:00,
2013-03-06 23:15:00,29.5,25.5,30.12,North,11,2.0,8.0,85,0.00,,,0.00,Wunderground v.1.15,2013-03-07 04:15:00,
2013-03-06 23:20:00,29.4,25.4,30.12,NE,46,9.0,9.0,85,0.00,,,0.00,Wunderground v.1.15,2013-03-07 04:20:00,
2013-03-06 23:26:00,29.4,25.4,30.12,WNW,283,0.0,9.0,85,0.00,,,0.00,Wunderground v.1.15,2013-03-07 04:26:00,
2013-03-06 23:31:00,29.4,25.4,30.12,NW,323,1.0,3.0,85,0.00,,,0.00,Wunderground v.1.15,2013-03-07 04:31:00,
2013-03-06 23:36:00,29.4,25.7,30.12,NNW,330,3.0,10.0,86,0.00,,,0.00,Wunderground v.1.15,2013-03-07 04:36:00,
2013-03-06 23:41:00,29.4,25.7,30.12,North,9,2.0,3.0,86,0.00,,,0.00,Wunderground v.1.15,2013-03-07 04:41:00,
2013-03-06 23:46:00,29.4,25.7,30.11,NW,305,3.0,7.0,86,0.00,,,0.00,Wunderground v.1.15,2013-03-07 04:46:00,
2013-03-06 23:51:00,29.3,25.6,30.11,North,360,2.0,3.0,86,0.00,,,0.00,Wunderground v.1.15,2013-03-07 04:51:00,
2013-03-06 23:57:00,29.3,25.6,30.11,NNW,348,6.0,8.0,86,0.00,,,0.00,Wunderground v.1.15,2013-03-07 04:57:00,